sensor_id;sensor_type;location;lat;lon;timestamp;temperature;humidity
39067;DHT22;24821;51.988;6.020;2022-10-01T00:01:44;12.60;99.90
39067;DHT22;24821;51.988;6.020;2022-10-01T00:04:10;12.60;99.90
39067;DHT22;24821;51.988;6.020;2022-10-01T00:06:35;12.60;99.90
39067;DHT22;24821;51.988;6.020;2022-10-01T00:09:01;12.50;99.90
39067;DHT22;24821;51.988;6.020;2022-10-01T00:11:26;12.50;99.90
39067;DHT22;24821;51.988;6.020;2022-10-01T00:13:52;12.50;99.90
39067;DHT22;24821;51.988;6.020;2022-10-01T00:16:24;12.50;99.90
39067;DHT22;24821;51.988;6.020;2022-10-01T00:18:50;12.50;99.90
39067;DHT22;24821;51.988;6.020;2022-10-01T00:21:20;12.40;99.90
39067;DHT22;24821;51.988;6.020;2022-10-01T00:23:46;12.50;99.90
39067;DHT22;24821;51.988;6.020;2022-10-01T00:26:20;12.40;99.90
39067;DHT22;24821;51.988;6.020;2022-10-01T00:28:51;12.40;99.90
39067;DHT22;24821;51.988;6.020;2022-10-01T00:31:17;12.40;99.90
39067;DHT22;24821;51.988;6.020;2022-10-01T00:33:43;12.40;99.90
39067;DHT22;24821;51.988;6.020;2022-10-01T00:36:09;12.40;99.90
39067;DHT22;24821;51.988;6.020;2022-10-01T00:38:36;12.40;99.90
39067;DHT22;24821;51.988;6.020;2022-10-01T00:41:03;12.40;99.90
39067;DHT22;24821;51.988;6.020;2022-10-01T00:43:31;12.40;99.90
39067;DHT22;24821;51.988;6.020;2022-10-01T00:46:08;12.30;99.90
39067;DHT22;24821;51.988;6.020;2022-10-01T00:48:53;12.30;99.90
39067;DHT22;24821;51.988;6.020;2022-10-01T00:51:29;12.30;99.90
39067;DHT22;24821;51.988;6.020;2022-10-01T00:54:01;12.30;99.90
39067;DHT22;24821;51.988;6.020;2022-10-01T00:56:30;12.30;99.90
39067;DHT22;24821;51.988;6.020;2022-10-01T00:58:56;12.30;99.90
39067;DHT22;24821;51.988;6.020;2022-10-01T01:01:22;12.30;99.90
39067;DHT22;24821;51.988;6.020;2022-10-01T01:03:49;12.30;99.90
39067;DHT22;24821;51.988;6.020;2022-10-01T01:06:15;12.30;99.90
39067;DHT22;24821;51.988;6.020;2022-10-01T01:08:41;12.40;99.90
39067;DHT22;24821;51.988;6.020;2022-10-01T01:13:56;12.30;99.90
39067;DHT22;24821;51.988;6.020;2022-10-01T01:16:36;12.30;99.90
39067;DHT22;24821;51.988;6.020;2022-10-01T01:21:51;12.20;99.90
39067;DHT22;24821;51.988;6.020;2022-10-01T01:32:35;12.10;99.90
39067;DHT22;24821;51.988;6.020;2022-10-01T01:35:04;12.10;99.90
39067;DHT22;24821;51.988;6.020;2022-10-01T01:37:34;12.20;99.90
39067;DHT22;24821;51.988;6.020;2022-10-01T01:40:03;12.10;99.90
39067;DHT22;24821;51.988;6.020;2022-10-01T01:42:35;12.10;99.90
39067;DHT22;24821;51.988;6.020;2022-10-01T01:45:04;12.10;99.90
39067;DHT22;24821;51.988;6.020;2022-10-01T01:47:34;12.00;99.90
39067;DHT22;24821;51.988;6.020;2022-10-01T01:50:02;12.10;99.90
39067;DHT22;24821;51.988;6.020;2022-10-01T01:52:29;12.10;99.90
39067;DHT22;24821;51.988;6.020;2022-10-01T01:54:56;12.10;99.90
39067;DHT22;24821;51.988;6.020;2022-10-01T01:57:22;12.10;99.90
39067;DHT22;24821;51.988;6.020;2022-10-01T01:59:48;12.10;99.90
39067;DHT22;24821;51.988;6.020;2022-10-01T02:02:20;12.20;99.90
39067;DHT22;24821;51.988;6.020;2022-10-01T02:04:50;12.20;99.90
39067;DHT22;24821;51.988;6.020;2022-10-01T02:13:28;12.20;99.90
39067;DHT22;24821;51.988;6.020;2022-10-01T02:16:10;12.20;99.90
39067;DHT22;24821;51.988;6.020;2022-10-01T02:19:04;12.10;99.90
39067;DHT22;24821;51.988;6.020;2022-10-01T02:21:54;12.10;99.90
39067;DHT22;24821;51.988;6.020;2022-10-01T02:27:02;12.10;99.90
39067;DHT22;24821;51.988;6.020;2022-10-01T02:29:29;12.10;99.90
39067;DHT22;24821;51.988;6.020;2022-10-01T02:31:55;12.10;99.90
39067;DHT22;24821;51.988;6.020;2022-10-01T02:34:24;12.10;99.90
39067;DHT22;24821;51.988;6.020;2022-10-01T02:36:53;12.10;99.90
39067;DHT22;24821;51.988;6.020;2022-10-01T02:39:20;12.10;99.90
39067;DHT22;24821;51.988;6.020;2022-10-01T02:41:49;12.10;99.90
39067;DHT22;24821;51.988;6.020;2022-10-01T02:44:22;12.20;99.90
39067;DHT22;24821;51.988;6.020;2022-10-01T02:46:53;12.20;99.90
39067;DHT22;24821;51.988;6.020;2022-10-01T02:49:21;12.20;99.90
39067;DHT22;24821;51.988;6.020;2022-10-01T02:54:52;12.20;99.90
39067;DHT22;24821;51.988;6.020;2022-10-01T02:57:19;12.20;99.90
39067;DHT22;24821;51.988;6.020;2022-10-01T02:59:49;12.20;99.90
39067;DHT22;24821;51.988;6.020;2022-10-01T03:02:16;12.20;99.90
39067;DHT22;24821;51.988;6.020;2022-10-01T03:04:41;12.20;99.90
39067;DHT22;24821;51.988;6.020;2022-10-01T03:07:07;12.20;99.90
39067;DHT22;24821;51.988;6.020;2022-10-01T03:09:34;12.20;99.90
39067;DHT22;24821;51.988;6.020;2022-10-01T03:12:01;12.20;99.90
39067;DHT22;24821;51.988;6.020;2022-10-01T03:14:27;12.20;99.90
39067;DHT22;24821;51.988;6.020;2022-10-01T03:16:53;12.20;99.90
39067;DHT22;24821;51.988;6.020;2022-10-01T03:19:19;12.20;99.90
39067;DHT22;24821;51.988;6.020;2022-10-01T03:21:44;12.20;99.90
39067;DHT22;24821;51.988;6.020;2022-10-01T03:24:10;12.20;99.90
39067;DHT22;24821;51.988;6.020;2022-10-01T03:26:36;12.20;99.90
39067;DHT22;24821;51.988;6.020;2022-10-01T03:29:03;12.20;99.90
39067;DHT22;24821;51.988;6.020;2022-10-01T03:31:28;12.20;99.90
39067;DHT22;24821;51.988;6.020;2022-10-01T03:33:54;12.10;99.90
39067;DHT22;24821;51.988;6.020;2022-10-01T03:36:22;12.20;99.90
39067;DHT22;24821;51.988;6.020;2022-10-01T03:38:47;12.10;99.90
39067;DHT22;24821;51.988;6.020;2022-10-01T03:41:13;12.20;99.90
39067;DHT22;24821;51.988;6.020;2022-10-01T03:43:38;12.10;99.90
39067;DHT22;24821;51.988;6.020;2022-10-01T03:46:04;12.20;99.90
39067;DHT22;24821;51.988;6.020;2022-10-01T03:48:29;12.20;99.90
39067;DHT22;24821;51.988;6.020;2022-10-01T03:50:57;12.20;99.90
39067;DHT22;24821;51.988;6.020;2022-10-01T03:53:24;12.30;99.90
39067;DHT22;24821;51.988;6.020;2022-10-01T03:55:50;12.30;99.90
39067;DHT22;24821;51.988;6.020;2022-10-01T03:58:16;12.30;99.90
39067;DHT22;24821;51.988;6.020;2022-10-01T04:00:44;12.40;99.90
39067;DHT22;24821;51.988;6.020;2022-10-01T04:03:09;12.40;99.90
39067;DHT22;24821;51.988;6.020;2022-10-01T04:05:35;12.40;99.90
39067;DHT22;24821;51.988;6.020;2022-10-01T04:08:01;12.50;99.90
39067;DHT22;24821;51.988;6.020;2022-10-01T04:10:26;12.50;99.90
39067;DHT22;24821;51.988;6.020;2022-10-01T04:12:52;12.50;99.90
39067;DHT22;24821;51.988;6.020;2022-10-01T04:15:20;12.50;99.90
39067;DHT22;24821;51.988;6.020;2022-10-01T04:17:47;12.50;99.90
39067;DHT22;24821;51.988;6.020;2022-10-01T04:20:12;12.60;99.90
39067;DHT22;24821;51.988;6.020;2022-10-01T04:22:39;12.60;99.90
39067;DHT22;24821;51.988;6.020;2022-10-01T04:25:06;12.70;99.90
39067;DHT22;24821;51.988;6.020;2022-10-01T04:27:32;12.70;99.90
39067;DHT22;24821;51.988;6.020;2022-10-01T04:29:57;12.70;99.90
39067;DHT22;24821;51.988;6.020;2022-10-01T04:32:23;12.70;99.90
39067;DHT22;24821;51.988;6.020;2022-10-01T04:34:48;12.80;99.90
39067;DHT22;24821;51.988;6.020;2022-10-01T04:37:18;12.80;99.90
39067;DHT22;24821;51.988;6.020;2022-10-01T04:39:44;12.80;99.90
39067;DHT22;24821;51.988;6.020;2022-10-01T04:42:09;12.80;99.90
39067;DHT22;24821;51.988;6.020;2022-10-01T04:44:37;12.90;99.90
39067;DHT22;24821;51.988;6.020;2022-10-01T04:47:03;12.90;99.90
39067;DHT22;24821;51.988;6.020;2022-10-01T04:49:28;12.90;99.90
39067;DHT22;24821;51.988;6.020;2022-10-01T04:51:56;12.90;99.90
39067;DHT22;24821;51.988;6.020;2022-10-01T04:54:21;12.90;99.90
39067;DHT22;24821;51.988;6.020;2022-10-01T04:56:47;12.90;99.90
39067;DHT22;24821;51.988;6.020;2022-10-01T04:59:12;12.90;99.90
39067;DHT22;24821;51.988;6.020;2022-10-01T05:01:38;13.00;99.90
39067;DHT22;24821;51.988;6.020;2022-10-01T05:04:03;13.00;99.90
39067;DHT22;24821;51.988;6.020;2022-10-01T05:06:29;13.00;99.90
39067;DHT22;24821;51.988;6.020;2022-10-01T05:08:54;13.00;99.90
39067;DHT22;24821;51.988;6.020;2022-10-01T05:11:20;13.00;99.90
39067;DHT22;24821;51.988;6.020;2022-10-01T05:13:45;13.10;99.90
39067;DHT22;24821;51.988;6.020;2022-10-01T05:16:11;13.10;99.90
39067;DHT22;24821;51.988;6.020;2022-10-01T05:18:36;13.10;99.90
39067;DHT22;24821;51.988;6.020;2022-10-01T05:21:05;13.10;99.90
39067;DHT22;24821;51.988;6.020;2022-10-01T05:23:32;13.10;99.90
39067;DHT22;24821;51.988;6.020;2022-10-01T05:25:58;13.20;99.90
39067;DHT22;24821;51.988;6.020;2022-10-01T05:28:23;13.20;99.90
39067;DHT22;24821;51.988;6.020;2022-10-01T05:30:51;13.20;99.90
39067;DHT22;24821;51.988;6.020;2022-10-01T05:33:16;13.20;99.90
39067;DHT22;24821;51.988;6.020;2022-10-01T05:35:42;13.20;99.90
39067;DHT22;24821;51.988;6.020;2022-10-01T05:38:09;13.30;99.90
39067;DHT22;24821;51.988;6.020;2022-10-01T05:40:34;13.30;99.90
39067;DHT22;24821;51.988;6.020;2022-10-01T05:43:00;13.30;99.90
39067;DHT22;24821;51.988;6.020;2022-10-01T05:45:29;13.30;99.90
39067;DHT22;24821;51.988;6.020;2022-10-01T05:48:04;13.30;99.90
39067;DHT22;24821;51.988;6.020;2022-10-01T05:50:30;13.40;99.90
39067;DHT22;24821;51.988;6.020;2022-10-01T05:52:56;13.30;99.90
39067;DHT22;24821;51.988;6.020;2022-10-01T05:55:22;13.30;99.90
39067;DHT22;24821;51.988;6.020;2022-10-01T05:57:55;13.30;99.90
39067;DHT22;24821;51.988;6.020;2022-10-01T06:00:21;13.40;99.90
39067;DHT22;24821;51.988;6.020;2022-10-01T06:02:50;13.40;99.90
39067;DHT22;24821;51.988;6.020;2022-10-01T06:05:17;13.40;99.90
39067;DHT22;24821;51.988;6.020;2022-10-01T06:07:43;13.40;99.90
39067;DHT22;24821;51.988;6.020;2022-10-01T06:10:08;13.40;99.90
39067;DHT22;24821;51.988;6.020;2022-10-01T06:12:34;13.50;99.90
39067;DHT22;24821;51.988;6.020;2022-10-01T06:14:59;13.50;99.90
39067;DHT22;24821;51.988;6.020;2022-10-01T06:17:25;13.50;99.90
39067;DHT22;24821;51.988;6.020;2022-10-01T06:19:50;13.50;99.90
39067;DHT22;24821;51.988;6.020;2022-10-01T06:22:16;13.50;99.90
39067;DHT22;24821;51.988;6.020;2022-10-01T06:24:42;13.60;99.90
39067;DHT22;24821;51.988;6.020;2022-10-01T06:27:08;13.60;99.90
39067;DHT22;24821;51.988;6.020;2022-10-01T06:29:34;13.70;99.90
39067;DHT22;24821;51.988;6.020;2022-10-01T06:32:00;13.60;99.90
39067;DHT22;24821;51.988;6.020;2022-10-01T06:34:26;13.70;99.90
39067;DHT22;24821;51.988;6.020;2022-10-01T06:36:51;13.70;99.90
39067;DHT22;24821;51.988;6.020;2022-10-01T06:39:17;13.80;99.90
39067;DHT22;24821;51.988;6.020;2022-10-01T06:41:42;13.70;99.90
39067;DHT22;24821;51.988;6.020;2022-10-01T06:44:08;13.80;99.90
39067;DHT22;24821;51.988;6.020;2022-10-01T06:46:34;13.80;99.90
39067;DHT22;24821;51.988;6.020;2022-10-01T06:49:00;13.80;99.90
39067;DHT22;24821;51.988;6.020;2022-10-01T06:51:25;13.90;99.90
39067;DHT22;24821;51.988;6.020;2022-10-01T06:54:09;14.00;99.90
39067;DHT22;24821;51.988;6.020;2022-10-01T06:56:35;13.90;99.90
39067;DHT22;24821;51.988;6.020;2022-10-01T06:59:02;14.00;99.90
39067;DHT22;24821;51.988;6.020;2022-10-01T07:01:28;14.10;99.90
39067;DHT22;24821;51.988;6.020;2022-10-01T07:03:53;14.10;99.90
39067;DHT22;24821;51.988;6.020;2022-10-01T07:06:19;14.10;99.90
39067;DHT22;24821;51.988;6.020;2022-10-01T07:08:48;14.10;99.90
39067;DHT22;24821;51.988;6.020;2022-10-01T07:11:14;14.20;99.90
39067;DHT22;24821;51.988;6.020;2022-10-01T07:13:40;14.20;99.90
39067;DHT22;24821;51.988;6.020;2022-10-01T07:16:06;14.30;99.90
39067;DHT22;24821;51.988;6.020;2022-10-01T07:18:31;14.30;99.90
39067;DHT22;24821;51.988;6.020;2022-10-01T07:20:57;14.30;99.90
39067;DHT22;24821;51.988;6.020;2022-10-01T07:23:23;14.30;99.90
39067;DHT22;24821;51.988;6.020;2022-10-01T07:25:51;14.40;99.90
39067;DHT22;24821;51.988;6.020;2022-10-01T07:28:19;14.40;99.90
39067;DHT22;24821;51.988;6.020;2022-10-01T07:30:47;14.50;99.90
39067;DHT22;24821;51.988;6.020;2022-10-01T07:33:20;14.60;99.90
39067;DHT22;24821;51.988;6.020;2022-10-01T07:35:46;14.70;99.90
39067;DHT22;24821;51.988;6.020;2022-10-01T07:38:12;14.80;99.90
39067;DHT22;24821;51.988;6.020;2022-10-01T07:40:37;14.90;99.90
39067;DHT22;24821;51.988;6.020;2022-10-01T07:43:03;15.00;99.90
39067;DHT22;24821;51.988;6.020;2022-10-01T07:45:29;15.00;99.90
39067;DHT22;24821;51.988;6.020;2022-10-01T07:47:57;15.00;99.90
39067;DHT22;24821;51.988;6.020;2022-10-01T07:50:24;15.00;99.90
39067;DHT22;24821;51.988;6.020;2022-10-01T07:52:54;15.00;99.90
39067;DHT22;24821;51.988;6.020;2022-10-01T07:55:22;15.10;99.90
39067;DHT22;24821;51.988;6.020;2022-10-01T07:57:51;15.10;99.90
39067;DHT22;24821;51.988;6.020;2022-10-01T08:00:17;15.20;99.90
39067;DHT22;24821;51.988;6.020;2022-10-01T08:02:52;15.20;99.90
39067;DHT22;24821;51.988;6.020;2022-10-01T08:05:19;15.30;99.90
39067;DHT22;24821;51.988;6.020;2022-10-01T08:07:47;15.50;99.90
39067;DHT22;24821;51.988;6.020;2022-10-01T08:10:14;15.60;99.90
39067;DHT22;24821;51.988;6.020;2022-10-01T08:12:40;15.70;99.90
39067;DHT22;24821;51.988;6.020;2022-10-01T08:15:14;15.60;99.90
39067;DHT22;24821;51.988;6.020;2022-10-01T08:17:40;15.60;99.90
39067;DHT22;24821;51.988;6.020;2022-10-01T08:20:08;15.60;99.90
39067;DHT22;24821;51.988;6.020;2022-10-01T08:22:34;15.60;99.90
39067;DHT22;24821;51.988;6.020;2022-10-01T08:24:59;15.70;99.90
39067;DHT22;24821;51.988;6.020;2022-10-01T08:27:26;15.70;99.90
39067;DHT22;24821;51.988;6.020;2022-10-01T08:29:52;15.80;99.90
39067;DHT22;24821;51.988;6.020;2022-10-01T08:32:18;15.90;99.90
39067;DHT22;24821;51.988;6.020;2022-10-01T08:34:44;15.90;99.90
39067;DHT22;24821;51.988;6.020;2022-10-01T08:37:11;15.80;99.90
39067;DHT22;24821;51.988;6.020;2022-10-01T08:39:36;15.80;99.90
39067;DHT22;24821;51.988;6.020;2022-10-01T08:42:06;15.70;99.90
39067;DHT22;24821;51.988;6.020;2022-10-01T08:44:43;15.80;99.90
39067;DHT22;24821;51.988;6.020;2022-10-01T08:47:27;15.80;99.90
39067;DHT22;24821;51.988;6.020;2022-10-01T08:50:38;15.80;99.90
39067;DHT22;24821;51.988;6.020;2022-10-01T08:53:03;15.80;99.90
39067;DHT22;24821;51.988;6.020;2022-10-01T08:55:31;15.70;99.90
39067;DHT22;24821;51.988;6.020;2022-10-01T08:58:05;15.70;99.90
39067;DHT22;24821;51.988;6.020;2022-10-01T09:00:38;15.70;99.90
39067;DHT22;24821;51.988;6.020;2022-10-01T09:03:08;15.80;99.90
39067;DHT22;24821;51.988;6.020;2022-10-01T09:08:56;16.20;99.90
39067;DHT22;24821;51.988;6.020;2022-10-01T09:14:12;16.10;99.90
39067;DHT22;24821;51.988;6.020;2022-10-01T09:19:48;15.90;99.90
39067;DHT22;24821;51.988;6.020;2022-10-01T09:22:25;15.70;99.90
39067;DHT22;24821;51.988;6.020;2022-10-01T09:27:33;15.60;99.90
39067;DHT22;24821;51.988;6.020;2022-10-01T09:30:12;15.60;99.90
39067;DHT22;24821;51.988;6.020;2022-10-01T09:35:28;15.90;99.90
39067;DHT22;24821;51.988;6.020;2022-10-01T09:38:02;15.90;99.90
39067;DHT22;24821;51.988;6.020;2022-10-01T09:40:53;15.90;99.90
39067;DHT22;24821;51.988;6.020;2022-10-01T09:43:30;15.90;99.90
39067;DHT22;24821;51.988;6.020;2022-10-01T09:45:57;15.80;99.90
39067;DHT22;24821;51.988;6.020;2022-10-01T09:48:41;15.80;99.90
39067;DHT22;24821;51.988;6.020;2022-10-01T09:51:18;15.80;99.90
39067;DHT22;24821;51.988;6.020;2022-10-01T09:53:59;15.70;99.90
39067;DHT22;24821;51.988;6.020;2022-10-01T09:56:32;15.70;99.90
39067;DHT22;24821;51.988;6.020;2022-10-01T09:59:03;15.70;99.90
39067;DHT22;24821;51.988;6.020;2022-10-01T10:01:49;15.80;99.90
39067;DHT22;24821;51.988;6.020;2022-10-01T10:04:19;15.90;99.90
39067;DHT22;24821;51.988;6.020;2022-10-01T10:06:48;15.90;99.90
39067;DHT22;24821;51.988;6.020;2022-10-01T10:09:16;16.10;99.90
39067;DHT22;24821;51.988;6.020;2022-10-01T10:11:43;16.30;99.90
39067;DHT22;24821;51.988;6.020;2022-10-01T10:14:30;16.60;99.90
39067;DHT22;24821;51.988;6.020;2022-10-01T10:16:56;16.80;99.90
39067;DHT22;24821;51.988;6.020;2022-10-01T10:19:25;16.80;99.90
39067;DHT22;24821;51.988;6.020;2022-10-01T10:21:54;16.80;99.90
39067;DHT22;24821;51.988;6.020;2022-10-01T10:24:24;16.80;99.90
39067;DHT22;24821;51.988;6.020;2022-10-01T10:26:56;16.80;99.90
39067;DHT22;24821;51.988;6.020;2022-10-01T10:29:30;16.90;99.90
39067;DHT22;24821;51.988;6.020;2022-10-01T10:32:12;16.90;99.90
39067;DHT22;24821;51.988;6.020;2022-10-01T10:34:41;16.90;99.90
39067;DHT22;24821;51.988;6.020;2022-10-01T10:37:17;16.90;99.90
39067;DHT22;24821;51.988;6.020;2022-10-01T10:39:46;17.00;99.90
39067;DHT22;24821;51.988;6.020;2022-10-01T10:42:14;16.90;99.90
39067;DHT22;24821;51.988;6.020;2022-10-01T10:44:42;17.00;99.90
39067;DHT22;24821;51.988;6.020;2022-10-01T10:47:14;17.10;99.90
39067;DHT22;24821;51.988;6.020;2022-10-01T10:49:58;17.30;99.90
39067;DHT22;24821;51.988;6.020;2022-10-01T10:52:26;17.40;99.90
39067;DHT22;24821;51.988;6.020;2022-10-01T10:54:55;17.40;99.90
39067;DHT22;24821;51.988;6.020;2022-10-01T10:57:34;17.30;99.90
39067;DHT22;24821;51.988;6.020;2022-10-01T11:00:12;17.20;99.90
39067;DHT22;24821;51.988;6.020;2022-10-01T11:02:49;17.10;99.90
39067;DHT22;24821;51.988;6.020;2022-10-01T11:05:20;17.00;99.90
39067;DHT22;24821;51.988;6.020;2022-10-01T11:07:49;17.00;99.90
39067;DHT22;24821;51.988;6.020;2022-10-01T11:15:49;16.60;99.90
39067;DHT22;24821;51.988;6.020;2022-10-01T11:29:42;16.60;99.90
39067;DHT22;24821;51.988;6.020;2022-10-01T11:32:47;16.70;99.90
39067;DHT22;24821;51.988;6.020;2022-10-01T11:35:24;16.80;99.90
39067;DHT22;24821;51.988;6.020;2022-10-01T11:38:16;17.00;99.90
39067;DHT22;24821;51.988;6.020;2022-10-01T11:40:48;17.10;99.90
39067;DHT22;24821;51.988;6.020;2022-10-01T11:47:09;17.30;99.80
39067;DHT22;24821;51.988;6.020;2022-10-01T11:49:26;17.30;99.80
39067;DHT22;24821;51.988;6.020;2022-10-01T11:55:19;17.60;99.50
39067;DHT22;24821;51.988;6.020;2022-10-01T11:58:13;17.70;98.60
39067;DHT22;24821;51.988;6.020;2022-10-01T12:03:41;17.80;97.70
39067;DHT22;24821;51.988;6.020;2022-10-01T12:06:11;17.80;97.40
39067;DHT22;24821;51.988;6.020;2022-10-01T12:08:41;17.90;96.90
39067;DHT22;24821;51.988;6.020;2022-10-01T12:11:19;17.90;96.30
39067;DHT22;24821;51.988;6.020;2022-10-01T12:13:51;17.90;95.90
39067;DHT22;24821;51.988;6.020;2022-10-01T12:16:46;17.90;95.70
39067;DHT22;24821;51.988;6.020;2022-10-01T12:19:33;18.00;96.10
39067;DHT22;24821;51.988;6.020;2022-10-01T12:22:13;18.00;95.90
39067;DHT22;24821;51.988;6.020;2022-10-01T12:24:41;18.10;95.50
39067;DHT22;24821;51.988;6.020;2022-10-01T12:30:04;18.50;95.60
39067;DHT22;24821;51.988;6.020;2022-10-01T12:49:49;17.40;98.40
39067;DHT22;24821;51.988;6.020;2022-10-01T13:00:49;16.90;99.20
39067;DHT22;24821;51.988;6.020;2022-10-01T13:06:26;17.00;99.90
39067;DHT22;24821;51.988;6.020;2022-10-01T13:12:17;17.20;99.90
39067;DHT22;24821;51.988;6.020;2022-10-01T13:14:47;17.40;99.90
39067;DHT22;24821;51.988;6.020;2022-10-01T13:17:40;17.60;99.70
39067;DHT22;24821;51.988;6.020;2022-10-01T13:20:26;17.60;99.20
39067;DHT22;24821;51.988;6.020;2022-10-01T13:25:33;17.80;98.90
39067;DHT22;24821;51.988;6.020;2022-10-01T13:30:57;17.60;97.70
39067;DHT22;24821;51.988;6.020;2022-10-01T13:33:29;17.40;97.50
39067;DHT22;24821;51.988;6.020;2022-10-01T13:36:01;17.30;98.10
39067;DHT22;24821;51.988;6.020;2022-10-01T13:38:47;17.30;98.20
39067;DHT22;24821;51.988;6.020;2022-10-01T13:41:20;17.40;97.20
39067;DHT22;24821;51.988;6.020;2022-10-01T13:43:53;17.40;96.80
39067;DHT22;24821;51.988;6.020;2022-10-01T13:46:35;17.40;96.80
39067;DHT22;24821;51.988;6.020;2022-10-01T13:49:27;17.40;97.10
39067;DHT22;24821;51.988;6.020;2022-10-01T13:51:54;17.70;97.00
39067;DHT22;24821;51.988;6.020;2022-10-01T13:54:35;17.80;96.90
39067;DHT22;24821;51.988;6.020;2022-10-01T13:57:40;18.00;96.20
39067;DHT22;24821;51.988;6.020;2022-10-01T14:03:02;18.10;95.30
39067;DHT22;24821;51.988;6.020;2022-10-01T14:05:35;18.10;95.70
39067;DHT22;24821;51.988;6.020;2022-10-01T14:08:27;18.20;95.60
39067;DHT22;24821;51.988;6.020;2022-10-01T14:11:00;18.30;95.50
39067;DHT22;24821;51.988;6.020;2022-10-01T14:13:46;18.30;95.10
39067;DHT22;24821;51.988;6.020;2022-10-01T14:16:41;18.30;95.20
39067;DHT22;24821;51.988;6.020;2022-10-01T14:19:09;18.30;95.30
39067;DHT22;24821;51.988;6.020;2022-10-01T14:22:07;18.30;95.60
39067;DHT22;24821;51.988;6.020;2022-10-01T14:27:43;18.50;95.50
39067;DHT22;24821;51.988;6.020;2022-10-01T14:30:19;18.70;95.10
39067;DHT22;24821;51.988;6.020;2022-10-01T14:38:09;18.80;93.40
39067;DHT22;24821;51.988;6.020;2022-10-01T14:40:41;18.80;93.40
39067;DHT22;24821;51.988;6.020;2022-10-01T14:43:21;18.80;93.60
39067;DHT22;24821;51.988;6.020;2022-10-01T14:45:55;18.80;93.50
39067;DHT22;24821;51.988;6.020;2022-10-01T14:48:21;18.70;93.80
39067;DHT22;24821;51.988;6.020;2022-10-01T14:50:51;18.60;94.00
39067;DHT22;24821;51.988;6.020;2022-10-01T14:53:21;18.60;94.00
39067;DHT22;24821;51.988;6.020;2022-10-01T14:55:50;18.60;93.00
39067;DHT22;24821;51.988;6.020;2022-10-01T14:58:43;18.50;93.00
39067;DHT22;24821;51.988;6.020;2022-10-01T15:01:20;18.40;93.40
39067;DHT22;24821;51.988;6.020;2022-10-01T15:03:47;18.30;93.30
39067;DHT22;24821;51.988;6.020;2022-10-01T15:06:25;18.30;92.80
39067;DHT22;24821;51.988;6.020;2022-10-01T15:08:53;18.30;93.00
39067;DHT22;24821;51.988;6.020;2022-10-01T15:11:27;18.40;93.20
39067;DHT22;24821;51.988;6.020;2022-10-01T15:13:56;18.60;93.00
39067;DHT22;24821;51.988;6.020;2022-10-01T15:16:26;18.70;92.60
39067;DHT22;24821;51.988;6.020;2022-10-01T15:18:58;18.70;92.60
39067;DHT22;24821;51.988;6.020;2022-10-01T15:21:50;18.80;92.20
39067;DHT22;24821;51.988;6.020;2022-10-01T15:24:29;18.80;91.40
39067;DHT22;24821;51.988;6.020;2022-10-01T15:26:57;18.70;91.50
39067;DHT22;24821;51.988;6.020;2022-10-01T15:29:23;18.70;91.70
39067;DHT22;24821;51.988;6.020;2022-10-01T15:31:51;18.70;91.90
39067;DHT22;24821;51.988;6.020;2022-10-01T15:34:21;18.80;92.00
39067;DHT22;24821;51.988;6.020;2022-10-01T15:36:49;18.70;92.00
39067;DHT22;24821;51.988;6.020;2022-10-01T15:39:28;18.70;91.90
39067;DHT22;24821;51.988;6.020;2022-10-01T15:41:56;18.70;92.00
39067;DHT22;24821;51.988;6.020;2022-10-01T15:44:41;18.60;91.80
39067;DHT22;24821;51.988;6.020;2022-10-01T15:50:04;18.40;92.20
39067;DHT22;24821;51.988;6.020;2022-10-01T15:52:36;18.30;92.40
39067;DHT22;24821;51.988;6.020;2022-10-01T15:55:40;18.20;92.90
39067;DHT22;24821;51.988;6.020;2022-10-01T16:00:40;18.00;92.90
39067;DHT22;24821;51.988;6.020;2022-10-01T16:03:17;17.90;93.30
39067;DHT22;24821;51.988;6.020;2022-10-01T16:05:46;17.80;93.40
39067;DHT22;24821;51.988;6.020;2022-10-01T16:08:16;17.80;93.50
39067;DHT22;24821;51.988;6.020;2022-10-01T16:10:46;17.80;93.60
39067;DHT22;24821;51.988;6.020;2022-10-01T16:13:33;17.80;93.70
39067;DHT22;24821;51.988;6.020;2022-10-01T16:18:38;17.70;93.80
39067;DHT22;24821;51.988;6.020;2022-10-01T16:21:06;17.60;93.80
39067;DHT22;24821;51.988;6.020;2022-10-01T16:23:40;17.60;93.90
39067;DHT22;24821;51.988;6.020;2022-10-01T16:26:29;17.60;94.00
39067;DHT22;24821;51.988;6.020;2022-10-01T16:29:11;17.50;94.20
39067;DHT22;24821;51.988;6.020;2022-10-01T16:31:43;17.40;94.40
39067;DHT22;24821;51.988;6.020;2022-10-01T16:34:14;17.40;94.50
39067;DHT22;24821;51.988;6.020;2022-10-01T16:36:41;17.40;94.60
39067;DHT22;24821;51.988;6.020;2022-10-01T16:39:06;17.20;94.70
39067;DHT22;24821;51.988;6.020;2022-10-01T16:41:33;17.20;94.90
39067;DHT22;24821;51.988;6.020;2022-10-01T16:44:01;17.10;95.00
39067;DHT22;24821;51.988;6.020;2022-10-01T16:46:27;17.10;95.10
39067;DHT22;24821;51.988;6.020;2022-10-01T16:48:53;17.00;95.20
39067;DHT22;24821;51.988;6.020;2022-10-01T16:51:20;16.90;95.30
39067;DHT22;24821;51.988;6.020;2022-10-01T16:53:46;16.90;95.40
39067;DHT22;24821;51.988;6.020;2022-10-01T16:56:12;16.80;95.50
39067;DHT22;24821;51.988;6.020;2022-10-01T16:58:38;16.80;95.60
39067;DHT22;24821;51.988;6.020;2022-10-01T17:01:05;16.70;95.70
39067;DHT22;24821;51.988;6.020;2022-10-01T17:03:33;16.70;95.90
39067;DHT22;24821;51.988;6.020;2022-10-01T17:05:59;16.60;96.00
39067;DHT22;24821;51.988;6.020;2022-10-01T17:08:24;16.50;96.00
39067;DHT22;24821;51.988;6.020;2022-10-01T17:10:52;16.50;96.00
39067;DHT22;24821;51.988;6.020;2022-10-01T17:13:22;16.50;96.10
39067;DHT22;24821;51.988;6.020;2022-10-01T17:15:47;16.40;96.10
39067;DHT22;24821;51.988;6.020;2022-10-01T17:18:15;16.40;96.10
39067;DHT22;24821;51.988;6.020;2022-10-01T17:20:40;16.30;96.10
39067;DHT22;24821;51.988;6.020;2022-10-01T17:23:06;16.30;96.20
39067;DHT22;24821;51.988;6.020;2022-10-01T17:25:34;16.20;96.30
39067;DHT22;24821;51.988;6.020;2022-10-01T17:28:02;16.20;96.50
39067;DHT22;24821;51.988;6.020;2022-10-01T17:30:28;16.10;96.60
39067;DHT22;24821;51.988;6.020;2022-10-01T17:32:55;16.00;96.90
39067;DHT22;24821;51.988;6.020;2022-10-01T17:35:22;15.90;96.80
39067;DHT22;24821;51.988;6.020;2022-10-01T17:37:47;15.80;96.80
39067;DHT22;24821;51.988;6.020;2022-10-01T17:40:14;15.80;96.80
39067;DHT22;24821;51.988;6.020;2022-10-01T17:42:40;15.80;96.80
39067;DHT22;24821;51.988;6.020;2022-10-01T17:45:07;15.80;96.90
39067;DHT22;24821;51.988;6.020;2022-10-01T17:47:34;15.70;97.10
39067;DHT22;24821;51.988;6.020;2022-10-01T17:49:59;15.70;97.20
39067;DHT22;24821;51.988;6.020;2022-10-01T17:52:25;15.80;97.30
39067;DHT22;24821;51.988;6.020;2022-10-01T17:54:51;15.80;97.40
39067;DHT22;24821;51.988;6.020;2022-10-01T17:57:16;15.70;97.60